Time;durP1;ratioP1;P1;durP2;ratioP2;P2;SDS_P1;SDS_P2;PMS_P1;PMS_P2;Temp;Humidity;BMP_temperature;BMP_pressure;BME280_temperature;BME280_humidity;BME280_pressure;Samples;Min_cycle;Max_cycle;Signal;HPM_P1;HPM_P2
2022/11/30 00:00:14;;;;;;;90.10;34.72;;;4.10;99.90;;;;;;5024440;28;20029;-78
2022/11/30 00:02:40;;;;;;;91.43;34.28;;;4.20;99.90;;;;;;5024137;28;20041;-79
2022/11/30 00:05:06;;;;;;;108.07;37.83;;;4.20;99.90;;;;;;5028054;28;20093;-78
2022/11/30 00:07:32;;;;;;;105.88;36.85;;;4.20;99.90;;;;;;5022670;28;20025;-78
2022/11/30 00:09:57;;;;;;;97.95;35.03;;;4.10;99.90;;;;;;5021558;28;20036;-78
2022/11/30 00:12:23;;;;;;;95.65;34.78;;;4.10;99.90;;;;;;5029102;28;20037;-78
2022/11/30 00:14:48;;;;;;;102.22;35.15;;;4.10;99.90;;;;;;5020458;28;20111;-78
2022/11/30 00:17:14;;;;;;;99.88;35.83;;;4.10;99.90;;;;;;5025609;28;20029;-78
2022/11/30 00:19:40;;;;;;;104.63;36.63;;;4.10;99.90;;;;;;5026510;28;20428;-78
2022/11/30 00:22:05;;;;;;;92.63;36.20;;;4.20;99.90;;;;;;5017858;28;20188;-79
2022/11/30 00:24:31;;;;;;;106.55;36.65;;;4.10;99.90;;;;;;5026278;28;20048;-78
2022/11/30 00:26:56;;;;;;;99.40;37.42;;;4.20;99.90;;;;;;5018511;28;20146;-78
2022/11/30 00:29:22;;;;;;;110.47;38.13;;;4.10;99.90;;;;;;5023585;28;20060;-78
2022/11/30 00:31:47;;;;;;;85.55;33.72;;;4.10;99.90;;;;;;5020621;28;20069;-78
2022/11/30 00:34:12;;;;;;;99.78;35.72;;;4.10;99.90;;;;;;5023414;28;20036;-78
2022/11/30 00:36:38;;;;;;;95.85;34.88;;;4.10;99.90;;;;;;5027314;28;20673;-78
2022/11/30 00:39:04;;;;;;;91.00;34.30;;;4.10;99.90;;;;;;5024228;28;20045;-78
2022/11/30 00:41:29;;;;;;;97.82;33.28;;;4.10;99.90;;;;;;5021575;28;20090;-78
2022/11/30 00:43:55;;;;;;;88.13;35.35;;;4.10;99.90;;;;;;5014043;28;20188;-78
2022/11/30 00:46:20;;;;;;;92.20;32.13;;;4.10;99.90;;;;;;5010241;28;20026;-78
2022/11/30 00:48:46;;;;;;;84.97;33.53;;;4.10;99.90;;;;;;5026209;28;20386;-78
2022/11/30 00:51:13;;;;;;;93.45;32.75;;;4.10;99.90;;;;;;5027157;28;20588;-78
2022/11/30 00:53:39;;;;;;;82.90;31.88;;;4.10;99.90;;;;;;5018505;28;20056;-78
2022/11/30 00:56:06;;;;;;;89.07;32.65;;;4.10;99.90;;;;;;5025857;28;20403;-78
2022/11/30 00:58:32;;;;;;;91.18;32.97;;;4.10;99.90;;;;;;5017301;28;20030;-78
2022/11/30 01:00:57;;;;;;;74.93;31.55;;;4.10;99.90;;;;;;5019288;28;20200;-78
2022/11/30 01:03:23;;;;;;;76.85;30.58;;;4.10;99.90;;;;;;5022280;28;20255;-78
2022/11/30 01:05:48;;;;;;;78.05;30.55;;;4.10;99.90;;;;;;5028834;28;20375;-79
2022/11/30 01:08:14;;;;;;;85.35;32.53;;;4.10;99.90;;;;;;5026313;28;20045;-78
2022/11/30 01:10:41;;;;;;;85.18;32.30;;;4.10;99.90;;;;;;5024196;28;20477;-78
2022/11/30 01:13:07;;;;;;;76.95;29.77;;;4.10;99.90;;;;;;5027257;28;20030;-78
2022/11/30 01:15:38;;;;;;;72.18;29.73;;;4.10;99.90;;;;;;5022093;28;20064;-78
2022/11/30 01:18:04;;;;;;;73.32;29.67;;;4.10;99.90;;;;;;5028090;28;20561;-78
2022/11/30 01:20:29;;;;;;;78.20;30.42;;;4.10;99.90;;;;;;5026536;28;20121;-78
2022/11/30 01:22:55;;;;;;;74.68;30.27;;;4.10;99.90;;;;;;5031304;28;20458;-78
2022/11/30 01:25:21;;;;;;;78.45;30.83;;;4.10;99.90;;;;;;5017541;28;20036;-78
2022/11/30 01:27:48;;;;;;;83.97;31.05;;;4.00;99.90;;;;;;5023620;28;20048;-78
2022/11/30 01:30:14;;;;;;;84.97;30.35;;;4.10;99.90;;;;;;5026870;28;20130;-78
2022/11/30 01:32:39;;;;;;;76.85;31.10;;;4.10;99.90;;;;;;5024441;28;20163;-78
2022/11/30 01:35:05;;;;;;;87.53;31.83;;;4.10;99.90;;;;;;5023026;28;20037;-78
2022/11/30 01:37:31;;;;;;;92.80;31.40;;;4.10;99.90;;;;;;5024690;28;20021;-78
2022/11/30 01:39:56;;;;;;;84.00;31.23;;;4.10;99.90;;;;;;5029885;28;20346;-77
2022/11/30 01:42:22;;;;;;;86.53;31.45;;;4.10;99.90;;;;;;5028412;28;20041;-77
2022/11/30 01:44:51;;;;;;;86.90;32.95;;;4.00;99.90;;;;;;5025897;28;20059;-78
2022/11/30 01:47:21;;;;;;;102.25;35.70;;;4.10;99.90;;;;;;5030540;28;20170;-78
2022/11/30 01:49:50;;;;;;;103.18;34.63;;;4.10;99.90;;;;;;5021453;28;20049;-78
2022/11/30 01:52:31;;;;;;;91.35;33.72;;;4.10;99.90;;;;;;5020040;28;20033;-78
2022/11/30 01:55:05;;;;;;;101.57;33.50;;;4.10;99.90;;;;;;5022585;28;20048;-78
2022/11/30 01:57:38;;;;;;;104.20;35.42;;;4.10;99.90;;;;;;5025247;28;20037;-78
2022/11/30 02:00:08;;;;;;;116.03;38.30;;;4.10;99.90;;;;;;5017825;28;20067;-80
2022/11/30 02:02:46;;;;;;;117.00;39.43;;;4.10;99.90;;;;;;5025881;28;20029;-78
2022/11/30 02:05:13;;;;;;;102.25;37.70;;;4.10;99.90;;;;;;5026261;28;20294;-78
2022/11/30 02:07:39;;;;;;;115.88;38.50;;;4.10;99.90;;;;;;5025270;28;20663;-78
2022/11/30 02:10:05;;;;;;;123.65;38.42;;;4.00;99.90;;;;;;5018502;28;20084;-78
2022/11/30 02:13:05;;;;;;;119.22;39.53;;;4.00;99.90;;;;;;5022307;28;20044;-78
2022/11/30 02:15:43;;;;;;;107.32;38.10;;;4.00;99.90;;;;;;5029872;28;20140;-78
2022/11/30 02:18:18;;;;;;;120.95;37.72;;;4.00;99.90;;;;;;5034335;28;20615;-78
2022/11/30 02:21:12;;;;;;;120.22;37.55;;;4.00;99.90;;;;;;5025498;28;20066;-79
2022/11/30 02:24:05;;;;;;;121.93;35.83;;;4.00;99.90;;;;;;5015566;28;20358;-78
2022/11/30 02:26:51;;;;;;;112.95;37.35;;;4.10;99.90;;;;;;5033177;28;20017;-78
2022/11/30 02:29:29;;;;;;;109.10;35.72;;;4.00;99.90;;;;;;5007562;28;20045;-78
2022/11/30 02:32:05;;;;;;;108.65;36.13;;;4.00;99.90;;;;;;5034255;28;20052;-78
2022/11/30 02:34:33;;;;;;;110.63;36.10;;;4.00;99.90;;;;;;5018238;28;20026;-78
2022/11/30 02:37:00;;;;;;;99.05;35.70;;;4.10;99.90;;;;;;5045331;28;20025;-78
2022/11/30 02:39:26;;;;;;;98.85;34.67;;;4.00;99.90;;;;;;5027961;28;20153;-78
2022/11/30 02:41:51;;;;;;;106.20;36.25;;;4.10;99.90;;;;;;5021567;28;20608;-78
2022/11/30 02:44:19;;;;;;;120.50;38.90;;;4.00;99.90;;;;;;5017851;28;20047;-78
2022/11/30 02:47:09;;;;;;;110.30;36.53;;;4.00;99.90;;;;;;5040662;28;20487;-78
2022/11/30 02:49:53;;;;;;;104.07;36.10;;;4.00;99.90;;;;;;5030895;28;20048;-78
2022/11/30 02:52:23;;;;;;;119.07;36.35;;;4.00;99.90;;;;;;5017400;28;20026;-78
2022/11/30 02:54:48;;;;;;;100.13;34.72;;;4.00;99.90;;;;;;5032372;28;20025;-79
2022/11/30 02:57:14;;;;;;;121.85;36.30;;;4.00;99.90;;;;;;5028347;28;20033;-78
2022/11/30 02:59:39;;;;;;;113.20;34.47;;;4.00;99.90;;;;;;5023925;28;20117;-78
2022/11/30 03:02:05;;;;;;;126.20;36.83;;;3.90;99.90;;;;;;5028474;28;20128;-78
2022/11/30 03:04:30;;;;;;;108.18;35.83;;;4.00;99.90;;;;;;5030254;28;20096;-78
2022/11/30 03:06:56;;;;;;;111.75;36.53;;;3.90;99.90;;;;;;5030145;28;20057;-78
2022/11/30 03:09:21;;;;;;;120.15;36.72;;;3.90;99.90;;;;;;5027293;28;20462;-78
2022/11/30 03:11:47;;;;;;;102.43;34.20;;;3.90;99.90;;;;;;5026879;28;20148;-78
2022/11/30 03:14:12;;;;;;;108.95;35.80;;;3.90;99.90;;;;;;5023743;28;20025;-78
2022/11/30 03:16:38;;;;;;;113.68;36.30;;;3.90;99.90;;;;;;5022472;28;20030;-78
2022/11/30 03:19:04;;;;;;;110.07;35.22;;;3.90;99.90;;;;;;5031732;28;20098;-78
2022/11/30 03:21:30;;;;;;;98.38;36.50;;;3.90;99.90;;;;;;5028822;28;20061;-78
2022/11/30 03:23:55;;;;;;;116.43;36.88;;;3.90;99.90;;;;;;5023824;28;20131;-78
2022/11/30 03:26:20;;;;;;;115.82;35.20;;;3.90;99.90;;;;;;5038021;28;20071;-78
2022/11/30 03:28:46;;;;;;;95.20;34.78;;;3.90;99.90;;;;;;5027065;28;20029;-78
2022/11/30 03:31:12;;;;;;;106.75;35.45;;;3.90;99.90;;;;;;5017431;28;20180;-78
2022/11/30 03:33:42;;;;;;;104.78;35.38;;;3.90;99.90;;;;;;5023192;28;20053;-78
2022/11/30 03:36:10;;;;;;;106.53;33.70;;;3.90;99.90;;;;;;5020900;28;20029;-78
2022/11/30 03:38:36;;;;;;;107.57;36.05;;;4.00;99.90;;;;;;5023130;28;20040;-77
2022/11/30 03:41:06;;;;;;;106.07;35.95;;;3.90;99.90;;;;;;5014941;28;20034;-78
2022/11/30 03:43:32;;;;;;;107.43;35.90;;;3.90;99.90;;;;;;5021957;28;20040;-78
2022/11/30 03:45:58;;;;;;;115.30;36.03;;;3.90;99.90;;;;;;5029332;28;20497;-78
2022/11/30 03:48:24;;;;;;;99.93;34.97;;;3.90;99.90;;;;;;5028536;28;20041;-78
2022/11/30 03:50:50;;;;;;;111.53;35.55;;;3.90;99.90;;;;;;5017922;28;20042;-78
2022/11/30 03:53:20;;;;;;;105.93;34.90;;;4.00;99.90;;;;;;5023896;28;20391;-77
2022/11/30 03:55:54;;;;;;;115.88;36.30;;;3.90;99.90;;;;;;5027491;28;20025;-78
2022/11/30 03:58:20;;;;;;;107.07;35.63;;;4.00;99.90;;;;;;5026791;28;20100;-78
2022/11/30 04:00:46;;;;;;;101.30;35.92;;;3.90;99.90;;;;;;5027280;28;20075;-78
2022/11/30 04:03:12;;;;;;;112.43;36.80;;;4.00;99.90;;;;;;5018284;28;20433;-78
2022/11/30 04:05:37;;;;;;;106.35;35.78;;;3.90;99.90;;;;;;5018861;28;20026;-78
2022/11/30 04:08:03;;;;;;;115.22;36.78;;;3.90;99.90;;;;;;5018817;28;20098;-78
2022/11/30 04:10:28;;;;;;;109.45;37.00;;;3.90;99.90;;;;;;5025757;28;20033;-78
2022/11/30 04:12:54;;;;;;;104.70;35.80;;;3.90;99.90;;;;;;5015145;28;20465;-78
2022/11/30 04:15:19;;;;;;;102.72;34.47;;;3.90;99.90;;;;;;5038143;28;20025;-78
2022/11/30 04:17:45;;;;;;;110.20;34.70;;;3.90;99.90;;;;;;5031543;28;20052;-77
2022/11/30 04:20:10;;;;;;;101.80;34.20;;;3.90;99.90;;;;;;5034737;28;20033;-78
2022/11/30 04:22:36;;;;;;;100.90;34.85;;;3.90;99.90;;;;;;5025698;28;20123;-78
2022/11/30 04:25:01;;;;;;;102.68;33.55;;;3.90;99.90;;;;;;5024237;28;20557;-77
2022/11/30 04:27:28;;;;;;;99.13;33.10;;;3.90;99.90;;;;;;5019044;28;20084;-77
2022/11/30 04:29:53;;;;;;;100.63;35.30;;;3.90;99.90;;;;;;5027474;28;20052;-77
2022/11/30 04:32:19;;;;;;;101.35;33.72;;;3.90;99.90;;;;;;5021377;28;20371;-77
2022/11/30 04:34:44;;;;;;;91.65;31.08;;;3.90;99.90;;;;;;5017887;28;20025;-77
2022/11/30 04:37:10;;;;;;;92.57;32.28;;;3.90;99.90;;;;;;5022823;28;20095;-78
2022/11/30 04:39:35;;;;;;;103.75;35.20;;;3.90;99.90;;;;;;5024972;28;20026;-77
2022/11/30 04:42:01;;;;;;;93.10;33.45;;;3.90;99.90;;;;;;5030163;28;20033;-77
2022/11/30 04:44:26;;;;;;;105.18;34.42;;;3.90;99.90;;;;;;5025715;28;20029;-77
2022/11/30 04:46:52;;;;;;;103.30;36.75;;;3.90;99.90;;;;;;5027374;28;20415;-77
2022/11/30 04:49:17;;;;;;;101.82;36.22;;;3.90;99.90;;;;;;5035805;28;20064;-77
2022/11/30 04:51:43;;;;;;;102.03;34.78;;;3.90;99.90;;;;;;5021975;28;20060;-77
2022/11/30 04:54:08;;;;;;;103.93;35.97;;;3.90;99.90;;;;;;5014450;28;20391;-77
2022/11/30 04:56:34;;;;;;;100.45;33.58;;;3.90;99.90;;;;;;5029089;28;20025;-77
2022/11/30 04:59:02;;;;;;;108.75;34.38;;;3.90;99.90;;;;;;5026367;28;20041;-77
2022/11/30 05:01:28;;;;;;;92.95;33.92;;;3.90;99.90;;;;;;5030448;28;20033;-77
2022/11/30 05:03:53;;;;;;;99.90;34.40;;;3.80;99.90;;;;;;5031665;28;20167;-77
2022/11/30 05:06:19;;;;;;;107.00;35.03;;;3.90;99.90;;;;;;5033491;28;20472;-77
2022/11/30 05:08:44;;;;;;;100.20;35.33;;;3.90;99.90;;;;;;5029835;28;20057;-77
2022/11/30 05:11:10;;;;;;;95.57;33.30;;;3.80;99.90;;;;;;5028110;28;20083;-77
2022/11/30 05:13:35;;;;;;;89.90;34.40;;;3.90;99.90;;;;;;5024274;28;20033;-77
2022/11/30 05:16:01;;;;;;;111.57;34.60;;;3.90;99.90;;;;;;5027790;28;20041;-77
2022/11/30 05:18:28;;;;;;;96.32;33.60;;;3.90;99.90;;;;;;5035517;28;20077;-76
2022/11/30 05:20:53;;;;;;;98.15;34.22;;;3.90;99.90;;;;;;5039734;28;20029;-77
2022/11/30 05:23:19;;;;;;;119.47;35.20;;;3.90;99.90;;;;;;5031866;28;20071;-77
2022/11/30 05:25:45;;;;;;;105.45;34.13;;;3.90;99.90;;;;;;5029446;28;20469;-77
2022/11/30 05:28:12;;;;;;;107.97;33.92;;;3.90;99.90;;;;;;5029837;28;20021;-83
2022/11/30 05:30:38;;;;;;;104.80;34.72;;;3.90;99.90;;;;;;5027279;28;20115;-82
2022/11/30 05:33:04;;;;;;;122.30;35.05;;;3.90;99.90;;;;;;5022780;28;20072;-76
2022/11/30 05:35:30;;;;;;;115.25;36.30;;;3.90;99.90;;;;;;5027714;28;20049;-76
2022/11/30 05:37:55;;;;;;;108.60;35.55;;;3.90;99.90;;;;;;5022774;28;20030;-76
2022/11/30 05:40:21;;;;;;;104.85;33.72;;;3.90;99.90;;;;;;5025152;28;20037;-76
2022/11/30 05:42:46;;;;;;;108.97;35.72;;;3.90;99.90;;;;;;5018586;28;20100;-76
2022/11/30 05:45:12;;;;;;;109.40;34.90;;;3.90;99.90;;;;;;5014551;28;20128;-76
2022/11/30 05:47:37;;;;;;;94.75;33.05;;;3.90;99.90;;;;;;5028967;28;20028;-76
2022/11/30 05:50:03;;;;;;;108.80;34.53;;;3.90;99.90;;;;;;5028011;28;20134;-76
2022/11/30 05:52:29;;;;;;;106.55;34.65;;;3.90;99.90;;;;;;5021155;28;20041;-76
2022/11/30 05:54:54;;;;;;;110.85;34.72;;;3.90;99.90;;;;;;5024922;28;20038;-76
2022/11/30 05:57:20;;;;;;;112.75;35.53;;;3.90;99.90;;;;;;5025892;28;20117;-76
2022/11/30 05:59:45;;;;;;;105.75;34.53;;;3.90;99.90;;;;;;5018132;28;20040;-76
2022/11/30 06:02:11;;;;;;;108.35;34.88;;;3.90;99.90;;;;;;5026091;28;20318;-76
2022/11/30 06:04:36;;;;;;;118.03;35.72;;;3.90;99.90;;;;;;5028096;28;20040;-76
2022/11/30 06:07:03;;;;;;;116.80;34.80;;;3.90;99.90;;;;;;5025133;28;20041;-76
2022/11/30 06:09:28;;;;;;;118.20;38.03;;;3.90;99.90;;;;;;5024848;28;20025;-76
2022/11/30 06:11:54;;;;;;;111.82;34.75;;;3.90;99.90;;;;;;5022766;28;20040;-76
2022/11/30 06:14:19;;;;;;;109.25;35.78;;;3.90;99.90;;;;;;5025204;28;20036;-76
2022/11/30 06:16:45;;;;;;;121.50;37.30;;;3.90;99.90;;;;;;5022287;28;20377;-75
2022/11/30 06:19:10;;;;;;;119.40;38.38;;;3.90;99.90;;;;;;5017588;28;20033;-76
2022/11/30 06:21:36;;;;;;;127.30;35.72;;;3.90;99.90;;;;;;5022051;28;20041;-76
2022/11/30 06:24:01;;;;;;;122.07;33.45;;;3.90;99.90;;;;;;5026075;28;20414;-76
2022/11/30 06:26:27;;;;;;;120.45;36.35;;;3.90;99.90;;;;;;5027948;28;20347;-77
2022/11/30 06:28:52;;;;;;;110.55;36.08;;;3.90;99.90;;;;;;5017119;28;20034;-77
2022/11/30 06:31:18;;;;;;;118.43;35.85;;;3.90;99.90;;;;;;5022272;28;20056;-76
2022/11/30 06:33:43;;;;;;;116.20;34.45;;;3.90;99.90;;;;;;5024842;28;20040;-76
2022/11/30 06:36:09;;;;;;;113.10;35.97;;;4.00;99.90;;;;;;5026370;28;20101;-76
2022/11/30 06:38:34;;;;;;;118.18;33.15;;;3.90;99.90;;;;;;5025755;28;20611;-76
2022/11/30 06:41:08;;;;;;;119.38;36.50;;;3.90;99.90;;;;;;5019366;28;20074;-76
2022/11/30 06:43:35;;;;;;;121.75;35.47;;;3.90;99.90;;;;;;5025242;28;20037;-76
2022/11/30 06:46:02;;;;;;;107.75;35.30;;;3.90;99.90;;;;;;5024959;28;20025;-76
2022/11/30 06:48:28;;;;;;;123.47;35.45;;;3.90;99.90;;;;;;5028846;28;20181;-74
2022/11/30 06:50:53;;;;;;;123.82;36.15;;;4.00;99.90;;;;;;5022826;28;20112;-75
2022/11/30 06:53:19;;;;;;;125.72;35.15;;;3.90;99.90;;;;;;5023745;28;20381;-76
2022/11/30 06:55:44;;;;;;;107.20;34.88;;;4.00;99.90;;;;;;5023063;28;20037;-70
2022/11/30 06:58:10;;;;;;;123.45;35.00;;;3.90;99.90;;;;;;5024405;28;20385;-71
2022/11/30 07:00:36;;;;;;;113.15;36.03;;;3.90;99.90;;;;;;5029784;28;20032;-70
2022/11/30 07:03:02;;;;;;;118.63;35.35;;;3.90;99.90;;;;;;5028792;28;20036;-70
2022/11/30 07:05:29;;;;;;;110.25;34.47;;;4.00;99.90;;;;;;5023943;28;20139;-72
2022/11/30 07:07:54;;;;;;;109.30;34.78;;;4.00;99.90;;;;;;5022876;28;20017;-76
2022/11/30 07:10:21;;;;;;;126.00;37.00;;;3.90;99.90;;;;;;5026525;28;20483;-71
2022/11/30 07:12:47;;;;;;;122.38;33.72;;;4.00;99.90;;;;;;5016816;28;20022;-73
2022/11/30 07:15:13;;;;;;;119.90;36.28;;;3.90;99.90;;;;;;5021009;28;20021;-73
2022/11/30 07:17:38;;;;;;;104.97;34.45;;;3.90;99.90;;;;;;5030332;28;20025;-70
2022/11/30 07:20:04;;;;;;;116.45;33.78;;;4.00;99.90;;;;;;5020201;28;20170;-72
2022/11/30 07:22:30;;;;;;;114.03;35.15;;;4.00;99.90;;;;;;5030672;28;20048;-73
2022/11/30 07:27:39;;;;;;;107.55;31.58;;;4.00;99.90;;;;;;5025010;28;20106;-73
2022/11/30 07:30:06;;;;;;;107.82;34.03;;;3.90;99.90;;;;;;5025570;28;20361;-73
2022/11/30 07:32:31;;;;;;;96.28;31.85;;;4.00;99.90;;;;;;5020312;28;20418;-71
2022/11/30 07:34:57;;;;;;;107.50;34.65;;;4.00;99.90;;;;;;5023981;28;20040;-72
2022/11/30 07:37:22;;;;;;;107.68;31.48;;;4.00;99.90;;;;;;5016824;28;20437;-73
2022/11/30 07:39:48;;;;;;;96.80;32.40;;;4.00;99.90;;;;;;5024789;28;20029;-76
2022/11/30 07:42:13;;;;;;;100.43;31.35;;;4.00;99.90;;;;;;5037187;28;20026;-76
2022/11/30 07:44:40;;;;;;;95.30;31.02;;;4.00;99.90;;;;;;5025052;28;20030;-76
2022/11/30 07:47:05;;;;;;;90.47;30.65;;;4.00;99.90;;;;;;5024762;28;20026;-76
2022/11/30 07:49:31;;;;;;;86.75;30.20;;;4.00;99.90;;;;;;5028646;28;20033;-75
2022/11/30 07:51:56;;;;;;;97.43;30.15;;;4.00;99.90;;;;;;5025474;28;20060;-78
2022/11/30 07:54:22;;;;;;;89.05;29.17;;;4.00;99.90;;;;;;5024267;28;20029;-76
2022/11/30 07:56:47;;;;;;;93.65;30.63;;;4.00;99.90;;;;;;5019444;28;20701;-76
2022/11/30 07:59:12;;;;;;;82.75;28.98;;;4.00;99.90;;;;;;5035697;28;20029;-75
2022/11/30 08:01:38;;;;;;;95.88;31.30;;;4.10;99.90;;;;;;5020448;28;20085;-76
2022/11/30 08:04:04;;;;;;;90.28;28.05;;;4.10;99.90;;;;;;5030839;28;20025;-72
2022/11/30 08:06:30;;;;;;;90.38;30.95;;;4.10;99.90;;;;;;5025080;28;20033;-73
2022/11/30 08:08:59;;;;;;;91.82;30.23;;;4.10;99.90;;;;;;5023651;28;20077;-74
2022/11/30 08:11:27;;;;;;;81.40;29.88;;;4.10;99.90;;;;;;5026250;28;20025;-73
2022/11/30 08:13:53;;;;;;;88.78;28.20;;;4.10;99.90;;;;;;5019780;28;20707;-73
2022/11/30 08:16:27;;;;;;;86.03;28.42;;;4.10;99.90;;;;;;5022859;28;20542;-73
2022/11/30 08:18:57;;;;;;;80.72;27.13;;;4.10;99.90;;;;;;5035441;28;20025;-74
2022/11/30 08:21:23;;;;;;;84.03;28.17;;;4.10;99.90;;;;;;5023802;28;20037;-73
2022/11/30 08:23:55;;;;;;;72.45;27.80;;;4.10;99.90;;;;;;5026410;28;20073;-73
2022/11/30 08:26:23;;;;;;;81.70;29.17;;;4.10;99.90;;;;;;5021407;28;20018;-73
2022/11/30 08:28:49;;;;;;;80.75;26.75;;;4.20;99.90;;;;;;5018185;28;20110;-73
2022/11/30 08:31:18;;;;;;;81.35;27.33;;;4.10;99.90;;;;;;5028351;28;20052;-74
2022/11/30 08:33:44;;;;;;;81.82;27.05;;;4.20;99.90;;;;;;5025854;28;20040;-73
2022/11/30 08:36:12;;;;;;;74.35;26.52;;;4.20;99.90;;;;;;5022426;28;20025;-73
2022/11/30 08:38:39;;;;;;;78.55;26.63;;;4.20;99.90;;;;;;5021402;28;20116;-73
2022/11/30 08:41:06;;;;;;;78.50;27.60;;;4.20;99.90;;;;;;5015628;28;20034;-73
2022/11/30 08:43:31;;;;;;;73.72;26.90;;;4.30;99.90;;;;;;5024632;28;20037;-73
2022/11/30 08:46:02;;;;;;;69.75;26.85;;;4.30;99.90;;;;;;5023680;28;20544;-73
2022/11/30 08:48:27;;;;;;;;;;;4.30;99.90;;;;;;5026782;28;20124;-74
2022/11/30 08:50:53;;;;;;;65.38;24.27;;;4.30;99.90;;;;;;5023104;28;20004;-73
2022/11/30 08:53:18;;;;;;;57.45;23.92;;;4.30;99.90;;;;;;5026918;28;20110;-74
2022/11/30 08:55:54;;;;;;;61.70;24.95;;;4.30;99.90;;;;;;5022338;28;20033;-74
2022/11/30 08:58:19;;;;;;;55.53;23.45;;;4.30;99.90;;;;;;5021515;28;20071;-73
2022/11/30 09:00:45;;;;;;;64.05;25.13;;;4.20;99.90;;;;;;5016451;28;20025;-74
2022/11/30 09:03:10;;;;;;;57.97;23.67;;;4.30;99.90;;;;;;5022408;28;20064;-74
2022/11/30 09:05:36;;;;;;;60.67;24.45;;;4.30;99.90;;;;;;5016990;28;20036;-74
2022/11/30 09:08:01;;;;;;;60.70;23.45;;;4.30;99.90;;;;;;5026944;28;20034;-73
2022/11/30 09:10:27;;;;;;;57.35;23.75;;;4.30;99.90;;;;;;5020270;28;20458;-73
2022/11/30 09:12:52;;;;;;;55.78;23.05;;;4.40;99.90;;;;;;5021283;28;20029;-74
2022/11/30 09:15:18;;;;;;;59.22;23.95;;;4.40;99.90;;;;;;5016033;28;20034;-74
2022/11/30 09:17:43;;;;;;;64.47;25.65;;;4.50;99.90;;;;;;5027597;28;20083;-74
2022/11/30 09:20:09;;;;;;;61.03;24.08;;;4.40;99.90;;;;;;5026203;28;20684;-73
2022/11/30 09:22:35;;;;;;;59.28;23.73;;;4.60;99.90;;;;;;5024391;28;20064;-74
2022/11/30 09:25:00;;;;;;;52.47;23.23;;;4.50;99.90;;;;;;5019721;28;20030;-74
2022/11/30 09:27:29;;;;;;;51.03;23.80;;;4.60;99.90;;;;;;5034373;28;20033;-74
2022/11/30 09:29:54;;;;;;;52.90;22.77;;;4.60;99.90;;;;;;5016111;28;20502;-74
2022/11/30 09:32:20;;;;;;;54.67;22.92;;;4.60;99.90;;;;;;5024889;28;20117;-74
2022/11/30 09:34:45;;;;;;;50.03;24.02;;;4.60;99.90;;;;;;5027584;28;20029;-74
2022/11/30 09:37:11;;;;;;;57.05;23.27;;;4.60;99.90;;;;;;5027270;28;20022;-74
2022/11/30 09:39:36;;;;;;;54.50;24.85;;;4.60;99.90;;;;;;5014015;28;20049;-74
2022/11/30 09:42:36;;;;;;;54.53;23.35;;;4.60;99.90;;;;;;5026056;28;20029;-74
2022/11/30 09:45:07;;;;;;;46.38;22.83;;;4.50;99.90;;;;;;5028591;28;20021;-74
2022/11/30 09:48:03;;;;;;;50.85;23.35;;;4.60;99.90;;;;;;5030289;28;20021;-73
2022/11/30 09:50:33;;;;;;;48.90;23.25;;;4.60;99.90;;;;;;5029414;28;20411;-78
2022/11/30 09:53:08;;;;;;;53.75;22.88;;;4.60;99.90;;;;;;5030846;28;20172;-75
2022/11/30 09:55:39;;;;;;;49.75;23.15;;;4.60;99.80;;;;;;5033579;28;20033;-75
2022/11/30 09:58:06;;;;;;;49.63;22.75;;;4.60;99.80;;;;;;5025330;28;20064;-79
2022/11/30 10:00:33;;;;;;;51.03;21.80;;;4.60;99.80;;;;;;5025737;28;20041;-78
2022/11/30 10:03:03;;;;;;;49.70;21.60;;;4.60;99.70;;;;;;5027453;28;20457;-78
2022/11/30 10:05:55;;;;;;;52.28;21.48;;;4.50;99.80;;;;;;5015234;28;20065;-72
2022/11/30 10:08:36;;;;;;;53.30;22.63;;;4.60;99.80;;;;;;5033094;28;20410;-74
2022/11/30 10:11:16;;;;;;;57.30;22.17;;;4.60;99.80;;;;;;5015780;28;20026;-73
2022/11/30 10:14:22;;;;;;;51.33;22.73;;;4.60;99.80;;;;;;5028736;28;20101;-79
2022/11/30 10:17:01;;;;;;;46.08;20.98;;;4.60;99.70;;;;;;5018049;28;20252;-79
2022/11/30 10:19:49;;;;;;;48.25;21.75;;;4.60;99.70;;;;;;5029529;28;20037;-74
2022/11/30 10:22:24;;;;;;;55.78;21.73;;;4.70;99.70;;;;;;5021521;28;20037;-74
2022/11/30 10:25:15;;;;;;;49.15;22.67;;;4.60;99.60;;;;;;5028078;28;20106;-74
2022/11/30 10:27:52;;;;;;;52.13;22.33;;;4.60;99.60;;;;;;5027434;28;20030;-74
2022/11/30 10:30:22;;;;;;;52.65;22.48;;;4.70;99.80;;;;;;5022570;28;20474;-73
2022/11/30 10:32:52;;;;;;;48.45;22.52;;;4.60;99.60;;;;;;5019433;28;20076;-74
2022/11/30 10:35:36;;;;;;;50.58;22.83;;;4.60;99.60;;;;;;5028666;28;20053;-73
2022/11/30 10:38:20;;;;;;;56.78;22.35;;;4.60;99.60;;;;;;5021700;28;20055;-74
2022/11/30 10:41:03;;;;;;;53.92;22.15;;;4.60;99.70;;;;;;5019553;28;20029;-71
2022/11/30 10:43:36;;;;;;;63.50;23.25;;;4.60;99.50;;;;;;5011342;28;20479;-72
2022/11/30 10:46:01;;;;;;;56.33;22.23;;;4.60;99.60;;;;;;5019774;28;20029;-72
2022/11/30 10:48:36;;;;;;;49.95;22.55;;;4.60;99.60;;;;;;5028434;28;20347;-72
2022/11/30 10:51:03;;;;;;;51.03;22.50;;;4.60;99.60;;;;;;5026692;28;20033;-72
2022/11/30 10:53:30;;;;;;;54.35;22.63;;;4.60;99.60;;;;;;5022422;28;20391;-78
2022/11/30 10:56:08;;;;;;;49.05;22.38;;;4.60;99.50;;;;;;5019911;28;20026;-76
2022/11/30 10:58:38;;;;;;;60.58;22.25;;;4.60;99.60;;;;;;5025479;28;20049;-78
2022/11/30 11:01:27;;;;;;;60.60;24.52;;;4.60;99.60;;;;;;5029247;28;20037;-77
2022/11/30 11:04:14;;;;;;;57.28;23.25;;;4.70;99.60;;;;;;5024135;28;20037;-78
2022/11/30 11:06:46;;;;;;;55.83;23.48;;;4.60;99.60;;;;;;5018790;28;20053;-77
2022/11/30 11:09:48;;;;;;;55.92;22.92;;;4.70;99.60;;;;;;5020507;28;20033;-73
2022/11/30 11:12:18;;;;;;;58.95;24.33;;;4.80;99.60;;;;;;5016225;28;20235;-72
2022/11/30 11:14:44;;;;;;;60.20;23.48;;;4.70;99.50;;;;;;5023783;28;20040;-73
2022/11/30 11:17:22;;;;;;;60.65;24.98;;;4.70;99.50;;;;;;5024251;28;20030;-73
2022/11/30 11:19:49;;;;;;;66.95;26.30;;;4.70;99.50;;;;;;5025382;28;20021;-74
2022/11/30 11:22:23;;;;;;;66.90;25.33;;;4.70;99.50;;;;;;5020265;28;20045;-72
2022/11/30 11:24:52;;;;;;;64.57;24.70;;;4.80;99.60;;;;;;5022169;28;20296;-73
2022/11/30 11:27:30;;;;;;;63.95;26.63;;;4.80;99.40;;;;;;5021802;28;20037;-73
2022/11/30 11:30:17;;;;;;;62.30;24.77;;;4.70;99.40;;;;;;5018347;28;20141;-72
2022/11/30 11:33:10;;;;;;;65.20;25.40;;;4.70;99.50;;;;;;5024009;28;20082;-72
2022/11/30 11:35:40;;;;;;;63.70;26.23;;;4.80;99.50;;;;;;5023359;28;20049;-73
2022/11/30 11:38:37;;;;;;;55.83;25.48;;;4.80;99.50;;;;;;5025583;28;20044;-73
2022/11/30 11:41:36;;;;;;;72.53;27.70;;;4.80;99.50;;;;;;5026127;28;20076;-73
2022/11/30 11:44:10;;;;;;;70.30;26.08;;;4.80;99.30;;;;;;5025312;28;20045;-73
2022/11/30 11:46:56;;;;;;;65.65;25.15;;;4.80;99.30;;;;;;5019504;28;20057;-73
2022/11/30 11:49:28;;;;;;;64.78;25.77;;;4.80;99.40;;;;;;5028928;28;20461;-75
2022/11/30 11:52:04;;;;;;;63.38;26.70;;;4.80;99.40;;;;;;5029298;28;20030;-74
2022/11/30 11:54:53;;;;;;;56.45;23.13;;;4.90;99.30;;;;;;5016005;28;20060;-73
2022/11/30 11:57:21;;;;;;;62.67;25.55;;;4.90;99.20;;;;;;5024143;28;20052;-73
2022/11/30 12:00:01;;;;;;;60.83;25.15;;;4.90;99.20;;;;;;5022369;28;20025;-73
2022/11/30 12:02:34;;;;;;;57.83;25.10;;;4.90;99.00;;;;;;5020079;28;20037;-73
2022/11/30 12:05:19;;;;;;;55.55;25.23;;;4.90;99.10;;;;;;5023730;28;20033;-73
2022/11/30 12:08:05;;;;;;;63.00;26.60;;;4.80;98.90;;;;;;5027770;28;20021;-73
2022/11/30 12:10:43;;;;;;;54.65;24.95;;;4.80;99.00;;;;;;5015672;28;20029;-72
2022/11/30 12:13:22;;;;;;;62.38;25.80;;;4.90;99.00;;;;;;5023802;28;20048;-73
2022/11/30 12:15:59;;;;;;;58.85;25.10;;;5.00;99.10;;;;;;5023812;28;20025;-72
2022/11/30 12:18:37;;;;;;;56.88;25.73;;;4.80;98.70;;;;;;5020674;28;20056;-74
2022/11/30 12:21:13;;;;;;;56.20;25.63;;;4.80;98.80;;;;;;5029584;28;20437;-74
2022/11/30 12:23:57;;;;;;;52.08;24.40;;;4.90;98.90;;;;;;5014177;28;20144;-73
2022/11/30 12:26:46;;;;;;;51.55;22.70;;;5.00;99.00;;;;;;5014524;28;20122;-78
2022/11/30 12:29:26;;;;;;;52.53;24.13;;;4.80;98.70;;;;;;5025044;28;20128;-77
2022/11/30 12:32:06;;;;;;;52.70;23.98;;;4.80;98.70;;;;;;5022914;28;20394;-78
2022/11/30 12:34:40;;;;;;;58.95;24.92;;;4.90;98.80;;;;;;5026600;28;20462;-74
2022/11/30 12:37:42;;;;;;;55.45;24.05;;;4.80;98.70;;;;;;5022920;28;20546;-74
2022/11/30 12:40:42;;;;;;;57.67;24.80;;;4.90;98.80;;;;;;5019228;28;20379;-69
2022/11/30 12:43:51;;;;;;;60.33;24.15;;;4.90;98.80;;;;;;5022011;28;20033;-77
2022/11/30 12:46:29;;;;;;;64.05;25.30;;;4.90;98.80;;;;;;5022836;28;20071;-77
2022/11/30 12:49:35;;;;;;;56.88;24.65;;;4.90;98.80;;;;;;5026654;28;20068;-73